createdAt,value
2015-09-16T00:00:03.911Z,73.88
2015-09-16T00:00:16.359Z,73.22
2015-09-16T00:00:28.766Z,74.07
2015-09-16T00:00:41.203Z,73.5
2015-09-16T00:00:53.625Z,73.12
2015-09-16T00:01:06.078Z,73.12
2015-09-16T00:01:18.544Z,73.41
2015-09-16T00:01:30.966Z,73.5
2015-09-16T00:01:43.356Z,73.03
2015-09-16T00:01:55.747Z,73.6
2015-09-16T00:02:08.179Z,73.97
2015-09-16T00:02:20.570Z,73.88
2015-09-16T00:02:32.976Z,73.88
2015-09-16T00:02:45.351Z,73.88
2015-09-16T00:02:57.039Z,73.6
2015-09-16T00:03:09.446Z,73.5
2015-09-16T00:03:21.868Z,74.45
2015-09-16T00:03:34.274Z,73.97
2015-09-16T00:03:46.696Z,73.88
2015-09-16T00:03:59.118Z,73.97
2015-09-16T00:04:11.556Z,74.35
2015-09-16T00:04:23.994Z,73.79
2015-09-16T00:04:36.415Z,73.97
2015-09-16T00:04:48.806Z,73.88
2015-09-16T00:05:01.212Z,74.45
2015-09-16T00:05:13.620Z,74.07
2015-09-16T00:05:26.011Z,74.07
2015-09-16T00:05:38.401Z,74.26
2015-09-16T00:05:50.823Z,74.26
2015-09-16T00:06:03.229Z,74.07
2015-09-16T00:06:15.653Z,74.16
2015-09-16T00:06:28.074Z,74.26
2015-09-16T00:06:40.496Z,74.26
2015-09-16T00:06:52.918Z,74.45
2015-09-16T00:07:05.356Z,74.54
2015-09-16T00:07:17.803Z,74.73
2015-09-16T00:07:30.256Z,74.54
2015-09-16T00:07:42.631Z,74.83
2015-09-16T00:07:55.022Z,74.83
2015-09-16T00:08:07.428Z,74.83
2015-09-16T00:08:19.108Z,74.92
2015-09-16T00:08:30.796Z,75.02
2015-09-16T00:08:42.499Z,74.6
2015-09-16T00:08:54.889Z,75.11
2015-09-16T00:09:07.280Z,75.17
2015-09-16T00:09:19.693Z,75.96
2015-09-16T00:09:32.099Z,75.78
2015-09-16T00:09:44.506Z,75.49
2015-09-16T00:09:56.912Z,75.68
2015-09-16T00:10:09.365Z,75.96
2015-09-16T00:10:21.795Z,75.78
2015-09-16T00:10:34.217Z,75.87
2015-09-16T00:10:46.654Z,75.96
2015-09-16T00:10:59.045Z,75.87
2015-09-16T00:11:10.717Z,75.96
2015-09-16T00:11:23.114Z,75.87
2015-09-16T00:11:35.505Z,75.87
2015-09-16T00:11:47.880Z,75.68
2015-09-16T00:12:00.271Z,75.59
2015-09-16T00:12:12.693Z,75.68
2015-09-16T00:12:25.119Z,75.21
2015-09-16T00:12:37.526Z,74.64
2015-09-16T00:12:49.916Z,75.02
2015-09-16T00:13:02.323Z,75.02
2015-09-16T00:13:14.744Z,74.83
2015-09-16T00:13:27.170Z,74.73
2015-09-16T00:13:39.608Z,74.54
2015-09-16T00:13:52.030Z,74.45
2015-09-16T00:14:04.467Z,74.45
2015-09-16T00:14:16.889Z,74.26
2015-09-16T00:14:29.283Z,74.16
2015-09-16T00:14:41.673Z,74.45
2015-09-16T00:14:54.064Z,74.07
2015-09-16T00:15:06.455Z,74.16
2015-09-16T00:15:18.845Z,73.97
2015-09-16T00:15:31.255Z,73.88
2015-09-16T00:15:43.646Z,73.88
2015-09-16T00:15:56.052Z,73.79
2015-09-16T00:16:08.443Z,73.88
2015-09-16T00:16:20.849Z,73.88
2015-09-16T00:16:33.259Z,73.88
2015-09-16T00:16:45.666Z,73.88
2015-09-16T00:16:58.103Z,73.88
2015-09-16T00:17:10.541Z,73.79
2015-09-16T00:17:22.963Z,74.07
2015-09-16T00:17:35.372Z,73.79
2015-09-16T00:17:47.762Z,73.97
2015-09-16T00:18:00.184Z,74.26
2015-09-16T00:18:12.575Z,73.69
2015-09-16T00:18:24.981Z,73.31
2015-09-16T00:18:37.389Z,73.88
2015-09-16T00:18:49.639Z,73.88
2015-09-16T00:19:02.030Z,73.88
2015-09-16T00:19:14.421Z,73.79
2015-09-16T00:19:26.843Z,73.97
2015-09-16T00:19:39.236Z,73.41
2015-09-16T00:19:51.642Z,73.69
2015-09-16T00:20:04.064Z,73.79
2015-09-16T00:20:16.486Z,73.22
2015-09-16T00:20:28.924Z,73.79
2015-09-16T00:20:41.363Z,74.07
2015-09-16T00:20:53.754Z,74.16
2015-09-16T00:21:05.441Z,73.12
2015-09-16T00:21:17.832Z,73.5
2015-09-16T00:21:30.223Z,73.22
2015-09-16T00:21:42.616Z,73.12
2015-09-16T00:21:55.022Z,73.12
2015-09-16T00:22:07.444Z,73.03
2015-09-16T00:22:19.835Z,73.12
2015-09-16T00:22:32.241Z,73.31
2015-09-16T00:22:44.493Z,73.41
2015-09-16T00:22:56.899Z,73.31
2015-09-16T00:23:09.306Z,73.31
2015-09-16T00:23:21.743Z,73.22
2015-09-16T00:23:34.165Z,73.03
2015-09-16T00:23:46.589Z,73.22
2015-09-16T00:23:59.026Z,73.22
2015-09-16T00:24:11.417Z,73.22
2015-09-16T00:24:23.823Z,73.12
2015-09-16T00:24:36.217Z,72.84
2015-09-16T00:24:48.623Z,72.93
2015-09-16T00:25:01.029Z,72.93
2015-09-16T00:25:13.420Z,72.93
2015-09-16T00:25:25.811Z,72.93
2015-09-16T00:25:38.219Z,73.03
2015-09-16T00:25:50.625Z,73.12
2015-09-16T00:26:03.031Z,72.84
2015-09-16T00:26:15.438Z,73.12
2015-09-16T00:26:27.844Z,72.93
2015-09-16T00:26:40.269Z,72.64
2015-09-16T00:26:52.691Z,72.84
2015-09-16T00:27:05.113Z,72.84
2015-09-16T00:27:17.519Z,72.64
2015-09-16T00:27:29.956Z,73.03
2015-09-16T00:27:41.645Z,72.64
2015-09-16T00:27:54.035Z,72.45
2015-09-16T00:28:06.426Z,72.55
2015-09-16T00:28:18.817Z,72.64
2015-09-16T00:28:31.223Z,72.74
2015-09-16T00:28:43.616Z,72.64
2015-09-16T00:28:56.006Z,72.64
2015-09-16T00:29:08.412Z,72.55
2015-09-16T00:29:20.803Z,72.45
2015-09-16T00:29:33.209Z,72.64
2015-09-16T00:29:45.618Z,72.45
2015-09-16T00:29:57.321Z,72.74
2015-09-16T00:30:09.774Z,72.84
2015-09-16T00:30:21.211Z,72.55
2015-09-16T00:30:33.305Z,72.45
2015-09-16T00:30:45.563Z,72.64
2015-09-16T00:30:57.688Z,72.45
2015-09-16T00:31:10.094Z,72.74
2015-09-16T00:31:22.179Z,72.64
2015-09-16T00:31:34.288Z,72.55
2015-09-16T00:31:46.696Z,73.03
2015-09-16T00:31:58.946Z,72.64
2015-09-16T00:32:11.368Z,72.55
2015-09-16T00:32:23.508Z,72.55
2015-09-16T00:32:35.633Z,72.84
2015-09-16T00:32:48.073Z,72.55
2015-09-16T00:33:00.229Z,71.98
2015-09-16T00:33:12.635Z,71.89
2015-09-16T00:33:25.088Z,72.17
2015-09-16T00:33:37.479Z,72.17
2015-09-16T00:33:49.887Z,71.98
2015-09-16T00:34:02.278Z,72.27
2015-09-16T00:34:14.668Z,72.17
2015-09-16T00:34:27.075Z,71.98
2015-09-16T00:34:39.465Z,71.89
2015-09-16T00:34:51.858Z,72.36
2015-09-16T00:35:04.249Z,71.98
2015-09-16T00:35:16.655Z,72.08
2015-09-16T00:35:29.045Z,72.27
2015-09-16T00:35:41.467Z,71.6
2015-09-16T00:35:53.172Z,71.8
2015-09-16T00:36:05.594Z,72.17
2015-09-16T00:36:18.016Z,72.27
2015-09-16T00:36:30.454Z,72.08
2015-09-16T00:36:42.907Z,72.27
2015-09-16T00:36:55.299Z,72.08
2015-09-16T00:37:07.690Z,71.73
2015-09-16T00:37:20.096Z,71.89
2015-09-16T00:37:32.503Z,72.02
2015-09-16T00:37:44.893Z,71.89
2015-09-16T00:37:57.301Z,71.89
2015-09-16T00:38:09.692Z,71.32
2015-09-16T00:38:22.083Z,71.41
2015-09-16T00:38:34.473Z,71.55
2015-09-16T00:38:46.880Z,71.07
2015-09-16T00:38:59.288Z,70.78
2015-09-16T00:39:11.725Z,70.47
2015-09-16T00:39:24.147Z,70.5
2015-09-16T00:39:36.569Z,70.31
2015-09-16T00:39:48.991Z,70.31
2015-09-16T00:40:01.399Z,70.5
2015-09-16T00:40:13.790Z,70.21
2015-09-16T00:40:26.196Z,70.12
2015-09-16T00:40:38.602Z,70.31
2015-09-16T00:40:51.011Z,70.21
2015-09-16T00:41:03.401Z,70.21
2015-09-16T00:41:15.636Z,70.21
2015-09-16T00:41:28.042Z,70.31
2015-09-16T00:41:40.432Z,70.4
2015-09-16T00:41:52.825Z,70.4
2015-09-16T00:42:05.247Z,70.5
2015-09-16T00:42:17.638Z,70.59
2015-09-16T00:42:30.044Z,70.56
2015-09-16T00:42:42.481Z,70.69
2015-09-16T00:42:54.905Z,70.69
2015-09-16T00:43:07.327Z,70.78
2015-09-16T00:43:19.765Z,70.88
2015-09-16T00:43:32.171Z,70.69
2015-09-16T00:43:44.577Z,70.75
2015-09-16T00:43:56.970Z,70.84
2015-09-16T00:44:09.376Z,70.94
2015-09-16T00:44:21.767Z,70.84
2015-09-16T00:44:33.438Z,70.88
2015-09-16T00:44:45.860Z,70.78
2015-09-16T00:44:58.253Z,70.98
2015-09-16T00:45:10.644Z,70.69
2015-09-16T00:45:23.034Z,70.75
2015-09-16T00:45:35.456Z,70.78
2015-09-16T00:45:47.878Z,70.78
2015-09-16T00:46:00.285Z,70.88
2015-09-16T00:46:12.707Z,71.17
2015-09-16T00:46:25.129Z,71.03
2015-09-16T00:46:37.426Z,71.17
2015-09-16T00:46:49.848Z,71.03
2015-09-16T00:47:02.257Z,71.03
2015-09-16T00:47:14.663Z,71.03
2015-09-16T00:47:27.038Z,71.03
2015-09-16T00:47:39.444Z,71.13
2015-09-16T00:47:51.835Z,70.94
2015-09-16T00:48:04.227Z,71.03
2015-09-16T00:48:16.617Z,71.03
2015-09-16T00:48:29.024Z,71.22
2015-09-16T00:48:41.414Z,71.41
2015-09-16T00:48:53.820Z,71.41
2015-09-16T00:49:06.230Z,71.6
2015-09-16T00:49:18.620Z,71.8
2015-09-16T00:49:31.027Z,71.8
2015-09-16T00:49:43.448Z,71.6
2015-09-16T00:49:55.839Z,71.8
2015-09-16T00:50:08.263Z,71.98
2015-09-16T00:50:20.669Z,72.08
2015-09-16T00:50:32.357Z,71.98
2015-09-16T00:50:44.779Z,71.98
2015-09-16T00:50:57.232Z,72.27
2015-09-16T00:51:09.483Z,72.36
2015-09-16T00:51:21.784Z,72.84
2015-09-16T00:51:34.222Z,72.55
2015-09-16T00:51:46.331Z,72.45
2015-09-16T00:51:58.753Z,72.64
2015-09-16T00:52:11.927Z,73.12
2015-09-16T00:52:24.365Z,73.12
2015-09-16T00:52:36.771Z,72.84
2015-09-16T00:52:49.208Z,72.93
2015-09-16T00:53:01.661Z,72.93
2015-09-16T00:53:14.054Z,72.93
2015-09-16T00:53:26.445Z,72.64
2015-09-16T00:53:38.835Z,72.74
2015-09-16T00:53:51.226Z,73.03
2015-09-16T00:54:03.617Z,72.74
2015-09-16T00:54:16.025Z,72.93
2015-09-16T00:54:28.415Z,72.64
2015-09-16T00:54:40.822Z,73.12
2015-09-16T00:54:53.212Z,73.12
2015-09-16T00:55:05.619Z,73.03
2015-09-16T00:55:18.027Z,73.12
2015-09-16T00:55:30.433Z,73.22
2015-09-16T00:55:42.871Z,73.22
2015-09-16T00:55:55.292Z,73.22
2015-09-16T00:56:07.714Z,73.12
2015-09-16T00:56:20.107Z,73.41
2015-09-16T00:56:32.498Z,74.07
2015-09-16T00:56:44.888Z,73.88
2015-09-16T00:56:57.279Z,73.88
2015-09-16T00:57:09.685Z,73.5
2015-09-16T00:57:22.078Z,73.97
2015-09-16T00:57:34.468Z,73.97
2015-09-16T00:57:46.859Z,74.26
2015-09-16T00:57:59.265Z,73.97
2015-09-16T00:58:11.673Z,74.26
2015-09-16T00:58:24.095Z,73.97
2015-09-16T00:58:35.783Z,73.79
2015-09-16T00:58:48.205Z,74.35
2015-09-16T00:59:00.627Z,73.79
2015-09-16T00:59:13.050Z,74.16
2015-09-16T00:59:25.472Z,73.88
2015-09-16T00:59:37.863Z,73.88
2015-09-16T00:59:50.269Z,73.88
2015-09-16T01:00:02.660Z,74.16
2015-09-16T01:00:15.068Z,73.97
2015-09-16T01:00:27.459Z,74.07
2015-09-16T01:00:39.865Z,74.16
2015-09-16T01:00:52.256Z,74.16
2015-09-16T01:01:04.662Z,74.22
2015-09-16T01:01:16.897Z,74.45
2015-09-16T01:01:29.303Z,74.22
2015-09-16T01:01:41.553Z,74.32
2015-09-16T01:01:53.960Z,74.69
2015-09-16T01:02:06.382Z,74.41
2015-09-16T01:02:18.837Z,74.41
2015-09-16T01:02:31.259Z,74.03
2015-09-16T01:02:43.696Z,74.32
2015-09-16T01:02:56.149Z,73.75
2015-09-16T01:03:08.540Z,74.13
2015-09-16T01:03:20.949Z,73.94
2015-09-16T01:03:33.355Z,73.84
2015-09-16T01:03:45.746Z,74.13
2015-09-16T01:03:58.152Z,74.22
2015-09-16T01:04:10.543Z,74.13
2015-09-16T01:04:22.951Z,74.13
2015-09-16T01:04:35.342Z,74.13
2015-09-16T01:04:47.748Z,73.94
2015-09-16T01:05:00.170Z,74.13
2015-09-16T01:05:12.576Z,73.97
2015-09-16T01:05:24.984Z,74.26
2015-09-16T01:05:37.422Z,74.07
2015-09-16T01:05:49.844Z,74.16
2015-09-16T01:06:01.562Z,74.07
2015-09-16T01:06:14.000Z,74.13
2015-09-16T01:06:26.439Z,74.32
2015-09-16T01:06:38.846Z,73.97
2015-09-16T01:06:51.236Z,73.75
2015-09-16T01:07:03.627Z,74.07
2015-09-16T01:07:15.314Z,74.03
2015-09-16T01:07:27.707Z,73.94
2015-09-16T01:07:40.113Z,74.22
2015-09-16T01:07:52.520Z,73.88
2015-09-16T01:08:04.910Z,73.79
2015-09-16T01:08:17.160Z,73.88
2015-09-16T01:08:29.583Z,73.84
2015-09-16T01:08:42.005Z,73.88
2015-09-16T01:08:54.411Z,73.79
2015-09-16T01:09:06.833Z,73.84
2015-09-16T01:09:19.271Z,74.13
2015-09-16T01:09:31.695Z,74.03
2015-09-16T01:09:44.133Z,73.88
2015-09-16T01:09:56.539Z,73.75
2015-09-16T01:10:08.945Z,74.03
2015-09-16T01:10:21.336Z,73.84
2015-09-16T01:10:33.729Z,74.26
2015-09-16T01:10:46.135Z,73.97
2015-09-16T01:10:58.385Z,73.84
2015-09-16T01:11:10.791Z,73.97
2015-09-16T01:11:23.182Z,73.79
2015-09-16T01:11:35.574Z,74.16
2015-09-16T01:11:47.981Z,73.88
2015-09-16T01:12:00.387Z,74.16
2015-09-16T01:12:12.793Z,73.69
2015-09-16T01:12:25.215Z,73.97
2015-09-16T01:12:37.654Z,73.79
2015-09-16T01:12:50.091Z,73.79
2015-09-16T01:13:02.544Z,73.88
2015-09-16T01:13:14.935Z,73.88
2015-09-16T01:13:27.341Z,74.16
2015-09-16T01:13:39.734Z,74.16
2015-09-16T01:13:52.124Z,73.79
2015-09-16T01:14:04.531Z,73.97
2015-09-16T01:14:16.921Z,73.79
2015-09-16T01:14:29.314Z,73.97
2015-09-16T01:14:41.736Z,74.26
2015-09-16T01:14:54.126Z,73.88
2015-09-16T01:15:06.548Z,74.07
2015-09-16T01:15:18.970Z,74.07
2015-09-16T01:15:31.378Z,73.79
2015-09-16T01:15:43.800Z,74.07
2015-09-16T01:15:56.238Z,74.07
2015-09-16T01:16:08.660Z,73.88
2015-09-16T01:16:21.081Z,74.16
2015-09-16T01:16:33.505Z,74.26
2015-09-16T01:16:45.896Z,73.97
2015-09-16T01:16:58.287Z,73.79
2015-09-16T01:17:10.677Z,73.88
2015-09-16T01:17:23.068Z,73.88
2015-09-16T01:17:35.477Z,73.97
2015-09-16T01:17:47.868Z,73.97
2015-09-16T01:18:00.258Z,73.79
2015-09-16T01:18:12.665Z,73.88
2015-09-16T01:18:25.055Z,73.79
2015-09-16T01:18:37.462Z,73.97
2015-09-16T01:18:49.884Z,73.97
2015-09-16T01:19:02.306Z,73.88
2015-09-16T01:19:14.728Z,74.07
2015-09-16T01:19:27.166Z,73.97
2015-09-16T01:19:39.589Z,74.26
2015-09-16T01:19:51.996Z,74.07
2015-09-16T01:20:04.386Z,74.07
2015-09-16T01:20:16.074Z,73.88
2015-09-16T01:20:28.480Z,74.07
2015-09-16T01:20:40.888Z,73.97
2015-09-16T01:20:53.279Z,74.07
2015-09-16T01:21:05.685Z,74.07
2015-09-16T01:21:18.091Z,73.97
2015-09-16T01:21:30.482Z,73.97
2015-09-16T01:21:42.875Z,73.88
2015-09-16T01:21:55.281Z,73.88
2015-09-16T01:22:07.687Z,73.97
2015-09-16T01:22:20.093Z,73.79
2015-09-16T01:22:32.531Z,74.26
2015-09-16T01:22:44.955Z,73.88
2015-09-16T01:22:57.377Z,74.07
2015-09-16T01:23:09.799Z,73.88
2015-09-16T01:23:22.252Z,74.07
2015-09-16T01:23:34.642Z,73.97
2015-09-16T01:23:47.035Z,73.97
2015-09-16T01:23:59.441Z,73.88
2015-09-16T01:24:11.832Z,73.88
2015-09-16T01:24:24.238Z,73.79
2015-09-16T01:24:36.629Z,73.97
2015-09-16T01:24:49.037Z,73.97
2015-09-16T01:25:01.443Z,73.88
2015-09-16T01:25:13.834Z,73.79
2015-09-16T01:25:26.240Z,73.88
2015-09-16T01:25:38.646Z,74.07
2015-09-16T01:25:51.070Z,73.97
2015-09-16T01:26:03.508Z,74.64
2015-09-16T01:26:15.930Z,73.79
2015-09-16T01:26:28.351Z,73.79
2015-09-16T01:26:40.617Z,73.79
2015-09-16T01:26:53.041Z,74.07
2015-09-16T01:27:05.432Z,74.26
2015-09-16T01:27:17.838Z,74.07
2015-09-16T01:27:29.525Z,74.07
2015-09-16T01:27:41.932Z,73.97
2015-09-16T01:27:54.309Z,74.07
2015-09-16T01:28:06.699Z,74.07
2015-09-16T01:28:19.105Z,74.16
2015-09-16T01:28:31.480Z,73.97
2015-09-16T01:28:43.902Z,73.79
2015-09-16T01:28:56.325Z,73.79
2015-09-16T01:29:08.731Z,74.35
2015-09-16T01:29:21.138Z,73.97
2015-09-16T01:29:33.575Z,73.88
2015-09-16T01:29:45.997Z,73.88
2015-09-16T01:29:58.422Z,73.79
2015-09-16T01:30:10.844Z,74.16
2015-09-16T01:30:23.266Z,73.5
2015-09-16T01:30:35.656Z,73.22
2015-09-16T01:30:48.049Z,73.22
2015-09-16T01:31:00.455Z,73.31
2015-09-16T01:31:12.846Z,73.22
2015-09-16T01:31:25.252Z,73.31
2015-09-16T01:31:37.643Z,73.5
2015-09-16T01:31:50.035Z,73.31
2015-09-16T01:32:02.426Z,73.12
2015-09-16T01:32:14.832Z,73.6
2015-09-16T01:32:27.223Z,73.31
2015-09-16T01:32:38.910Z,73.6
2015-09-16T01:32:51.318Z,73.22
2015-09-16T01:33:03.739Z,73.5
2015-09-16T01:33:16.177Z,73.03
2015-09-16T01:33:28.646Z,73.31
2015-09-16T01:33:41.036Z,73.5
2015-09-16T01:33:53.430Z,73.41
2015-09-16T01:34:05.836Z,74.07
2015-09-16T01:34:18.227Z,74.07
2015-09-16T01:34:30.617Z,73.03
2015-09-16T01:34:43.039Z,73.88
2015-09-16T01:34:55.447Z,73.88
2015-09-16T01:35:07.853Z,73.88
2015-09-16T01:35:20.259Z,74.16
2015-09-16T01:35:32.681Z,74.35
2015-09-16T01:35:45.103Z,73.97
2015-09-16T01:35:57.528Z,74.35
2015-09-16T01:36:09.981Z,73.97
2015-09-16T01:36:22.403Z,73.69
2015-09-16T01:36:34.793Z,73.97
2015-09-16T01:36:47.184Z,73.79
2015-09-16T01:36:59.592Z,73.97
2015-09-16T01:37:11.983Z,73.79
2015-09-16T01:37:24.389Z,73.88
2015-09-16T01:37:36.780Z,73.97
2015-09-16T01:37:49.202Z,74.07
2015-09-16T01:38:01.610Z,73.97
2015-09-16T01:38:13.875Z,73.97
2015-09-16T01:38:25.594Z,74.26
2015-09-16T01:38:38.047Z,74.35
2015-09-16T01:38:50.438Z,74.26
2015-09-16T01:39:02.845Z,74.16
2015-09-16T01:39:15.236Z,74.22
2015-09-16T01:39:27.626Z,73.97
2015-09-16T01:39:40.064Z,74.13
2015-09-16T01:39:52.470Z,73.97
2015-09-16T01:40:04.863Z,73.79
2015-09-16T01:40:17.269Z,73.88
2015-09-16T01:40:29.660Z,73.97
2015-09-16T01:40:42.066Z,74.16
2015-09-16T01:40:54.472Z,73.69
2015-09-16T01:41:06.880Z,74.26
2015-09-16T01:41:19.287Z,73.97
2015-09-16T01:41:31.709Z,73.88
2015-09-16T01:41:44.130Z,73.41
2015-09-16T01:41:56.584Z,73.03
2015-09-16T01:42:09.024Z,73.12
2015-09-16T01:42:21.415Z,73.03
2015-09-16T01:42:33.805Z,72.64
2015-09-16T01:42:45.337Z,72.93
2015-09-16T01:42:57.743Z,72.55
2015-09-16T01:43:10.134Z,72.74
2015-09-16T01:43:22.541Z,72.64
2015-09-16T01:43:34.072Z,72.74
2015-09-16T01:43:46.478Z,72.36
2015-09-16T01:43:58.869Z,72.36
2015-09-16T01:44:11.293Z,72.45
2015-09-16T01:44:23.699Z,72.45
2015-09-16T01:44:36.105Z,72.27
2015-09-16T01:44:48.527Z,72.45
2015-09-16T01:45:00.949Z,72.64
2015-09-16T01:45:13.357Z,72.45
2015-09-16T01:45:25.748Z,72.45
2015-09-16T01:45:37.435Z,72.64
2015-09-16T01:45:49.826Z,72.64
2015-09-16T01:46:02.232Z,72.64
2015-09-16T01:46:14.469Z,72.64
2015-09-16T01:46:26.875Z,72.74
2015-09-16T01:46:39.281Z,72.36
2015-09-16T01:46:51.672Z,71.89
2015-09-16T01:47:04.078Z,72.08
2015-09-16T01:47:16.486Z,72.08
2015-09-16T01:47:28.892Z,72.27
2015-09-16T01:47:41.314Z,72.27
2015-09-16T01:47:53.752Z,72.08
2015-09-16T01:48:05.471Z,71.51
2015-09-16T01:48:17.879Z,71.7
2015-09-16T01:48:30.285Z,72.36
2015-09-16T01:48:42.676Z,72.27
2015-09-16T01:48:55.066Z,72.08
2015-09-16T01:49:07.457Z,72.08
2015-09-16T01:49:19.865Z,72.36
2015-09-16T01:49:32.256Z,72.17
2015-09-16T01:49:44.646Z,72.64
2015-09-16T01:49:57.037Z,72.36
2015-09-16T01:50:09.443Z,72.64
2015-09-16T01:50:21.852Z,72.64
2015-09-16T01:50:34.258Z,72.64
2015-09-16T01:50:46.680Z,72.64
2015-09-16T01:50:58.945Z,72.55
2015-09-16T01:51:11.367Z,73.03
2015-09-16T01:51:23.791Z,73.22
2015-09-16T01:51:36.244Z,73.12
2015-09-16T01:51:48.697Z,72.64
2015-09-16T01:52:01.088Z,72.74
2015-09-16T01:52:13.479Z,73.03
2015-09-16T01:52:25.871Z,72.74
2015-09-16T01:52:38.277Z,72.74
2015-09-16T01:52:50.684Z,72.84
2015-09-16T01:53:03.074Z,72.93
2015-09-16T01:53:15.496Z,73.03
2015-09-16T01:53:27.903Z,72.93
2015-09-16T01:53:40.310Z,73.03
2015-09-16T01:53:52.747Z,73.03
2015-09-16T01:54:05.169Z,72.84
2015-09-16T01:54:17.450Z,73.03
2015-09-16T01:54:29.844Z,72.93
2015-09-16T01:54:42.266Z,72.84
2015-09-16T01:54:54.656Z,72.74
2015-09-16T01:55:07.063Z,73.22
2015-09-16T01:55:19.297Z,73.12
2015-09-16T01:55:31.705Z,73.12
2015-09-16T01:55:44.112Z,73.22
2015-09-16T01:55:56.502Z,72.64
2015-09-16T01:56:08.893Z,72.64
2015-09-16T01:56:21.315Z,72.64
2015-09-16T01:56:33.723Z,72.84
2015-09-16T01:56:46.129Z,72.93
2015-09-16T01:56:58.567Z,72.84
2015-09-16T01:57:10.285Z,72.74
2015-09-16T01:57:22.707Z,73.22
2015-09-16T01:57:35.146Z,72.55
2015-09-16T01:57:47.552Z,73.12
2015-09-16T01:57:59.943Z,73.12
2015-09-16T01:58:12.333Z,73.03
2015-09-16T01:58:24.740Z,72.84
2015-09-16T01:58:37.132Z,72.64
2015-09-16T01:58:49.523Z,72.64
2015-09-16T01:59:01.929Z,72.84
2015-09-16T01:59:14.320Z,72.74
2015-09-16T01:59:26.710Z,73.22
2015-09-16T01:59:39.134Z,72.84
2015-09-16T01:59:51.540Z,73.12
2015-09-16T02:00:03.947Z,73.22
2015-09-16T02:00:15.681Z,73.12
2015-09-16T02:00:28.103Z,72.74
2015-09-16T02:00:40.528Z,72.64
2015-09-16T02:00:52.950Z,72.55
2015-09-16T02:01:05.340Z,73.03
2015-09-16T02:01:17.731Z,73.03
2015-09-16T02:01:30.137Z,72.64
2015-09-16T02:01:42.530Z,72.93
2015-09-16T02:01:54.920Z,72.93
2015-09-16T02:02:07.311Z,72.84
2015-09-16T02:02:19.717Z,73.03
2015-09-16T02:02:32.110Z,72.93
2015-09-16T02:02:44.516Z,73.03
2015-09-16T02:02:56.922Z,73.03
2015-09-16T02:03:09.344Z,72.84
2015-09-16T02:03:21.751Z,73.03
2015-09-16T02:03:34.190Z,72.74
2015-09-16T02:03:46.612Z,73.12
2015-09-16T02:03:59.003Z,72.55
2015-09-16T02:04:11.409Z,72.64
2015-09-16T02:04:23.815Z,72.55
2015-09-16T02:04:36.239Z,72.45
2015-09-16T02:04:48.630Z,72.17
2015-09-16T02:05:01.036Z,72.17
2015-09-16T02:05:12.739Z,72.36
2015-09-16T02:05:25.145Z,71.98
2015-09-16T02:05:37.552Z,71.89
2015-09-16T02:05:49.990Z,71.89
2015-09-16T02:06:02.412Z,71.98
2015-09-16T02:06:14.834Z,72.08
2015-09-16T02:06:27.256Z,72.08
2015-09-16T02:06:39.664Z,72.27
2015-09-16T02:06:52.054Z,71.98
2015-09-16T02:07:04.445Z,72.27
2015-09-16T02:07:16.836Z,72.17
2015-09-16T02:07:29.226Z,71.98
2015-09-16T02:07:41.620Z,72.08
2015-09-16T02:07:54.011Z,71.89
2015-09-16T02:08:06.417Z,72.08
2015-09-16T02:08:18.667Z,72.08
2015-09-16T02:08:31.073Z,72.17
2015-09-16T02:08:43.497Z,72.27
2015-09-16T02:08:55.934Z,71.98
2015-09-16T02:09:08.388Z,72.08
2015-09-16T02:09:20.809Z,72.17
2015-09-16T02:09:33.231Z,72.08
2015-09-16T02:09:45.623Z,71.98
2015-09-16T02:09:58.014Z,71.89
2015-09-16T02:10:10.420Z,71.98
2015-09-16T02:10:22.810Z,72.08
2015-09-16T02:10:35.217Z,72.08
2015-09-16T02:10:47.610Z,72.36
2015-09-16T02:11:00.001Z,71.89
2015-09-16T02:11:12.423Z,71.98
2015-09-16T02:11:24.829Z,72.08
2015-09-16T02:11:37.235Z,71.8
2015-09-16T02:11:49.644Z,72.27
2015-09-16T02:12:02.050Z,72.27
2015-09-16T02:12:14.503Z,72.08
2015-09-16T02:12:26.925Z,71.98
2015-09-16T02:12:39.347Z,72.36
2015-09-16T02:12:51.771Z,72.55
2015-09-16T02:13:04.036Z,72.64
2015-09-16T02:13:16.427Z,73.12
2015-09-16T02:13:28.817Z,72.84
2015-09-16T02:13:41.224Z,72.64
2015-09-16T02:13:53.631Z,72.55
2015-09-16T02:14:06.022Z,73.08
2015-09-16T02:14:18.428Z,73.37
2015-09-16T02:14:30.818Z,73.46
2015-09-16T02:14:43.209Z,73.84
2015-09-16T02:14:55.617Z,74.32
2015-09-16T02:15:08.039Z,74.03
2015-09-16T02:15:20.445Z,74.22
2015-09-16T02:15:32.852Z,74.22
2015-09-16T02:15:45.305Z,73.46
2015-09-16T02:15:57.729Z,73.18
2015-09-16T02:16:10.135Z,73.94
2015-09-16T02:16:22.541Z,74.13
2015-09-16T02:16:34.932Z,73.56
2015-09-16T02:16:47.322Z,73.56
2015-09-16T02:16:59.731Z,73.56
2015-09-16T02:17:12.121Z,73.46
2015-09-16T02:17:24.512Z,73.27
2015-09-16T02:17:36.903Z,73.27
2015-09-16T02:17:49.311Z,73.56
2015-09-16T02:18:01.701Z,73.37
2015-09-16T02:18:14.108Z,74.03
2015-09-16T02:18:26.514Z,73.94
2015-09-16T02:18:38.936Z,72.99
2015-09-16T02:18:51.360Z,73.94
2015-09-16T02:19:03.641Z,74.03
2015-09-16T02:19:16.063Z,73.46
2015-09-16T02:19:28.485Z,73.94
2015-09-16T02:19:40.891Z,74.22
2015-09-16T02:19:53.298Z,73.65
2015-09-16T02:20:05.689Z,74.22
2015-09-16T02:20:18.079Z,73.84
2015-09-16T02:20:30.470Z,73.65
2015-09-16T02:20:42.876Z,74.03
2015-09-16T02:20:55.270Z,73.75
2015-09-16T02:21:07.661Z,73.84
2015-09-16T02:21:20.051Z,73.75
2015-09-16T02:21:32.457Z,74.13
2015-09-16T02:21:44.864Z,74.32
2015-09-16T02:21:56.553Z,74.22
2015-09-16T02:22:08.959Z,74.13
2015-09-16T02:22:21.397Z,73.94
2015-09-16T02:22:33.819Z,74.03
2015-09-16T02:22:46.303Z,73.94
2015-09-16T02:22:58.726Z,73.84
2015-09-16T02:23:11.117Z,74.13
2015-09-16T02:23:23.507Z,74.32
2015-09-16T02:23:35.914Z,73.08
2015-09-16T02:23:48.304Z,73.94
2015-09-16T02:24:00.698Z,73.37
2015-09-16T02:24:13.104Z,73.46
2015-09-16T02:24:25.495Z,73.46
2015-09-16T02:24:37.901Z,73.37
2015-09-16T02:24:50.307Z,74.03
2015-09-16T02:25:02.715Z,73.94
2015-09-16T02:25:15.137Z,74.03
2015-09-16T02:25:27.559Z,73.84
2015-09-16T02:25:39.997Z,73.37
2015-09-16T02:25:52.419Z,73.84
2015-09-16T02:26:04.841Z,73.94
2015-09-16T02:26:17.279Z,73.56
2015-09-16T02:26:29.670Z,73.37
2015-09-16T02:26:42.045Z,73.18
2015-09-16T02:26:54.451Z,72.89
2015-09-16T02:27:06.859Z,72.71
2015-09-16T02:27:19.250Z,73.18
2015-09-16T02:27:31.640Z,72.8
2015-09-16T02:27:44.031Z,72.71
2015-09-16T02:27:56.437Z,72.71
2015-09-16T02:28:08.831Z,72.71
2015-09-16T02:28:21.237Z,72.64
2015-09-16T02:28:33.659Z,73.22
2015-09-16T02:28:46.065Z,73.18
2015-09-16T02:28:58.487Z,73.27
2015-09-16T02:29:10.927Z,73.18
2015-09-16T02:29:23.333Z,72.93
2015-09-16T02:29:35.723Z,72.93
2015-09-16T02:29:48.114Z,72.71
2015-09-16T02:30:00.505Z,72.71
2015-09-16T02:30:12.928Z,72.61
2015-09-16T02:30:25.318Z,72.89
2015-09-16T02:30:37.740Z,72.71
2015-09-16T02:30:50.146Z,72.74
2015-09-16T02:31:02.553Z,73.08
2015-09-16T02:31:14.992Z,72.93
2015-09-16T02:31:27.414Z,72.74
2015-09-16T02:31:39.836Z,72.64
2015-09-16T02:31:52.273Z,73.08
2015-09-16T02:32:04.664Z,72.99
2015-09-16T02:32:17.057Z,73.18
2015-09-16T02:32:29.447Z,73.08
2015-09-16T02:32:41.838Z,73.46
2015-09-16T02:32:54.228Z,73.37
2015-09-16T02:33:06.619Z,73.12
2015-09-16T02:33:19.013Z,73.56
2015-09-16T02:33:31.419Z,73.46
2015-09-16T02:33:43.825Z,73.08
2015-09-16T02:33:56.231Z,72.99
2015-09-16T02:34:08.653Z,72.61
2015-09-16T02:34:21.092Z,73.08
2015-09-16T02:34:33.514Z,72.42
2015-09-16T02:34:45.936Z,72.52
2015-09-16T02:34:58.232Z,72.99
2015-09-16T02:35:10.654Z,73.08
2015-09-16T02:35:23.063Z,72.99
2015-09-16T02:35:35.453Z,73.08
2015-09-16T02:35:47.875Z,73.08
2015-09-16T02:36:00.281Z,72.99
2015-09-16T02:36:12.690Z,72.99
2015-09-16T02:36:25.096Z,72.8
2015-09-16T02:36:37.518Z,73.18
2015-09-16T02:36:49.940Z,73.27
2015-09-16T02:37:02.361Z,73.08
2015-09-16T02:37:14.802Z,73.27
2015-09-16T02:37:27.208Z,73.56
2015-09-16T02:37:39.599Z,73.27
2015-09-16T02:37:52.005Z,73.37
2015-09-16T02:38:04.396Z,74.13
2015-09-16T02:38:16.787Z,74.03
2015-09-16T02:38:29.178Z,73.94
2015-09-16T02:38:41.584Z,73.94
2015-09-16T02:38:53.975Z,73.75
2015-09-16T02:39:06.365Z,73.84
2015-09-16T02:39:18.774Z,74.03
2015-09-16T02:39:31.196Z,74.13